Time;durP1;ratioP1;P1;durP2;ratioP2;P2;SDS_P1;SDS_P2;PMS_P1;PMS_P2;Temp;Humidity;BMP_temperature;BMP_pressure;BME280_temperature;BME280_humidity;BME280_pressure;Samples;Min_cycle;Max_cycle;Signal;HPM_P1;HPM_P2
2021/09/28 00:00:08;;;;;;;17.92;12.48;;;19.40;99.90;;;;;;5014540;28;20076;-64
2021/09/28 00:02:33;;;;;;;13.48;11.52;;;19.40;99.90;;;;;;5029856;28;20030;-64
2021/09/28 00:04:59;;;;;;;13.65;12.23;;;19.50;99.90;;;;;;5034634;28;20033;-64
2021/09/28 00:07:24;;;;;;;14.20;11.90;;;19.50;99.90;;;;;;5034519;28;20034;-63
2021/09/28 00:09:50;;;;;;;14.35;12.73;;;19.50;99.90;;;;;;5034858;28;20033;-63
2021/09/28 00:12:16;;;;;;;15.38;12.82;;;19.50;99.90;;;;;;5034104;28;20028;-63
2021/09/28 00:14:42;;;;;;;12.68;11.38;;;19.50;99.90;;;;;;5033608;28;20067;-63
2021/09/28 00:17:08;;;;;;;14.85;13.13;;;19.50;99.90;;;;;;5033999;28;20046;-63
2021/09/28 00:19:34;;;;;;;13.70;12.30;;;19.40;99.90;;;;;;5034504;28;20064;-63
2021/09/28 00:22:00;;;;;;;13.45;12.15;;;19.40;99.90;;;;;;5033589;28;20073;-64
2021/09/28 00:24:25;;;;;;;14.05;12.52;;;19.40;99.90;;;;;;5034732;28;20053;-63
2021/09/28 00:26:51;;;;;;;13.40;12.00;;;19.40;99.90;;;;;;5034097;28;20037;-63
2021/09/28 00:29:16;;;;;;;14.32;12.82;;;19.30;99.90;;;;;;5034122;28;20068;-63
2021/09/28 00:31:42;;;;;;;14.48;12.80;;;19.30;99.90;;;;;;5034128;28;20048;-62
2021/09/28 00:34:07;;;;;;;13.38;11.95;;;19.30;99.90;;;;;;5033858;28;20060;-64
2021/09/28 00:36:33;;;;;;;13.80;12.40;;;19.20;99.90;;;;;;5027623;28;20396;-63
2021/09/28 00:38:59;;;;;;;13.68;12.30;;;19.20;99.90;;;;;;5012679;28;20080;-63
2021/09/28 00:41:24;;;;;;;15.00;13.40;;;19.20;99.90;;;;;;5012433;28;20561;-63
2021/09/28 00:43:53;;;;;;;17.17;13.45;;;19.20;99.90;;;;;;5013801;28;20119;-63
2021/09/28 00:46:20;;;;;;;14.18;12.77;;;19.20;99.90;;;;;;5013957;28;20040;-63
2021/09/28 00:48:46;;;;;;;13.75;12.25;;;19.20;99.90;;;;;;5014124;28;20362;-63
2021/09/28 00:51:13;;;;;;;8.23;6.72;;;19.30;99.90;;;;;;5013749;28;20065;-63
2021/09/28 00:53:40;;;;;;;7.82;5.80;;;18.80;99.70;;;;;;5014039;28;20046;-63
2021/09/28 00:56:08;;;;;;;7.78;4.10;;;18.00;99.90;;;;;;5013999;28;20137;-64
2021/09/28 00:58:35;;;;;;;4.05;3.03;;;17.60;99.90;;;;;;5013883;28;20037;-63
2021/09/28 01:01:03;;;;;;;3.80;2.60;;;17.10;99.90;;;;;;5016291;28;20614;-63
2021/09/28 01:03:30;;;;;;;2.75;2.45;;;16.90;99.90;;;;;;5033315;28;20032;-63
2021/09/28 01:05:55;;;;;;;3.45;2.20;;;16.70;99.90;;;;;;5031763;28;20374;-63
2021/09/28 01:08:21;;;;;;;7.25;2.10;;;16.60;99.90;;;;;;5033485;28;20037;-63
2021/09/28 01:10:47;;;;;;;3.20;2.05;;;16.50;99.90;;;;;;5032501;28;20036;-63
2021/09/28 01:13:12;;;;;;;2.08;1.88;;;16.50;99.90;;;;;;5032245;28;20034;-63
2021/09/28 01:15:38;;;;;;;4.78;2.20;;;16.60;99.90;;;;;;5031748;28;20103;-63
2021/09/28 01:18:03;;;;;;;3.38;2.13;;;16.50;99.90;;;;;;5032008;28;20551;-63
2021/09/28 01:20:29;;;;;;;3.55;2.22;;;16.40;99.90;;;;;;5032729;28;20496;-62
2021/09/28 01:22:55;;;;;;;4.30;2.80;;;16.30;99.90;;;;;;5033010;28;20033;-63
2021/09/28 01:25:21;;;;;;;5.47;2.30;;;16.20;99.90;;;;;;5015387;28;20084;-63
2021/09/28 01:27:46;;;;;;;5.35;2.30;;;16.20;99.90;;;;;;5033109;28;20523;-63
2021/09/28 01:30:12;;;;;;;4.65;2.38;;;16.10;99.90;;;;;;5033577;28;20076;-63
2021/09/28 01:32:38;;;;;;;3.88;2.30;;;16.30;99.90;;;;;;5032557;28;20080;-63
2021/09/28 01:35:06;;;;;;;4.28;2.50;;;16.20;99.90;;;;;;5032989;28;20033;-63
2021/09/28 01:37:32;;;;;;;5.80;2.75;;;16.20;99.90;;;;;;5018135;28;20092;-64
2021/09/28 01:39:57;;;;;;;5.63;2.60;;;16.30;99.80;;;;;;5012810;28;20097;-63
2021/09/28 01:42:23;;;;;;;4.88;2.83;;;16.30;99.80;;;;;;5012630;28;20439;-63
2021/09/28 01:44:49;;;;;;;4.35;2.40;;;16.30;99.90;;;;;;5011814;28;20045;-63
2021/09/28 01:47:14;;;;;;;5.30;2.50;;;16.20;99.90;;;;;;5011779;28;20119;-63
2021/09/28 01:49:40;;;;;;;6.38;2.78;;;16.30;99.90;;;;;;5013322;28;20173;-63
2021/09/28 01:52:06;;;;;;;4.57;2.60;;;16.30;99.90;;;;;;5011309;28;20065;-63
2021/09/28 01:54:31;;;;;;;5.65;2.72;;;16.30;99.90;;;;;;5013238;28;20041;-63
2021/09/28 01:56:57;;;;;;;6.20;2.80;;;16.20;99.90;;;;;;5011614;28;20046;-63
2021/09/28 01:59:22;;;;;;;5.40;3.08;;;16.20;99.90;;;;;;5013247;28;20370;-62
2021/09/28 02:01:48;;;;;;;9.52;3.13;;;16.20;99.90;;;;;;5021514;28;20124;-63
2021/09/28 02:04:14;;;;;;;5.45;2.75;;;16.20;99.90;;;;;;5031208;28;20057;-63
2021/09/28 02:06:39;;;;;;;7.05;3.28;;;16.10;99.90;;;;;;5032678;28;20049;-63
2021/09/28 02:09:08;;;;;;;7.22;3.35;;;16.10;99.90;;;;;;5031462;28;20519;-63
2021/09/28 02:11:36;;;;;;;7.30;3.45;;;16.10;99.90;;;;;;5031485;28;20037;-64
2021/09/28 02:14:03;;;;;;;5.97;3.08;;;16.00;99.90;;;;;;5030717;28;20068;-64
2021/09/28 02:16:29;;;;;;;4.55;2.85;;;15.90;99.90;;;;;;5032618;28;20039;-64
2021/09/28 02:18:55;;;;;;;6.05;3.15;;;15.90;99.90;;;;;;5031000;28;20042;-63
2021/09/28 02:21:21;;;;;;;6.53;3.55;;;16.10;99.90;;;;;;5032069;28;20436;-62
2021/09/28 02:23:47;;;;;;;7.90;3.60;;;16.10;99.90;;;;;;5032186;28;20037;-63
2021/09/28 02:26:12;;;;;;;5.95;3.85;;;16.00;99.90;;;;;;5032270;28;20032;-63
2021/09/28 02:28:38;;;;;;;8.63;3.40;;;16.00;99.90;;;;;;5033087;28;20095;-64
2021/09/28 02:31:04;;;;;;;6.75;3.50;;;16.00;99.90;;;;;;5032262;28;20076;-63
2021/09/28 02:33:29;;;;;;;7.90;3.70;;;15.80;99.90;;;;;;5032752;28;20484;-62
2021/09/28 02:35:55;;;;;;;6.30;3.83;;;15.90;99.90;;;;;;5035657;28;20037;-64
2021/09/28 02:38:20;;;;;;;7.18;3.95;;;16.00;99.90;;;;;;5018020;28;20042;-63
2021/09/28 02:40:46;;;;;;;7.63;4.15;;;16.00;99.90;;;;;;5015781;28;20381;-63
2021/09/28 02:43:13;;;;;;;5.90;4.00;;;16.00;99.90;;;;;;5017223;28;20037;-63
2021/09/28 02:45:40;;;;;;;7.80;4.63;;;16.10;99.90;;;;;;5016752;28;20030;-63
2021/09/28 02:48:06;;;;;;;7.43;4.13;;;16.10;99.90;;;;;;5016938;28;20033;-63
2021/09/28 02:50:33;;;;;;;4.65;3.60;;;16.00;99.90;;;;;;5016263;28;20041;-63
2021/09/28 02:53:00;;;;;;;9.10;4.80;;;16.10;99.90;;;;;;5015868;28;20405;-64
2021/09/28 02:55:26;;;;;;;7.90;4.13;;;15.80;99.90;;;;;;5014753;28;20038;-63
2021/09/28 02:57:52;;;;;;;6.35;4.53;;;15.90;99.90;;;;;;5015980;28;20038;-64
2021/09/28 03:00:17;;;;;;;8.55;4.43;;;15.80;99.90;;;;;;5015966;28;20048;-64
2021/09/28 03:02:43;;;;;;;6.90;4.13;;;15.70;99.90;;;;;;5031937;28;20034;-63
2021/09/28 03:05:08;;;;;;;6.43;3.97;;;15.70;99.90;;;;;;5036252;28;20033;-63
2021/09/28 03:07:34;;;;;;;7.85;3.80;;;15.60;99.90;;;;;;5035868;28;20087;-62
2021/09/28 03:09:59;;;;;;;5.68;3.67;;;15.70;99.90;;;;;;5034701;28;20041;-62
2021/09/28 03:12:25;;;;;;;6.80;4.47;;;15.50;99.90;;;;;;5035332;28;20041;-63
2021/09/28 03:14:50;;;;;;;5.45;3.65;;;15.50;99.90;;;;;;5035464;28;20046;-63
2021/09/28 03:17:16;;;;;;;8.27;4.20;;;15.50;99.90;;;;;;5034273;28;20116;-63
2021/09/28 03:19:42;;;;;;;7.32;4.40;;;15.40;99.90;;;;;;5035451;28;20117;-63
2021/09/28 03:22:07;;;;;;;5.90;4.10;;;15.50;99.90;;;;;;5029910;28;20050;-63
2021/09/28 03:24:33;;;;;;;5.63;4.22;;;15.40;99.90;;;;;;5031325;28;20125;-63
2021/09/28 03:26:58;;;;;;;8.93;4.65;;;15.50;99.90;;;;;;5015448;28;20029;-64
2021/09/28 03:29:24;;;;;;;9.93;4.78;;;15.60;99.90;;;;;;5031459;28;20033;-62
2021/09/28 03:31:49;;;;;;;7.53;4.60;;;15.60;99.90;;;;;;5030251;28;20044;-62
2021/09/28 03:34:15;;;;;;;7.95;4.78;;;15.40;99.90;;;;;;5015338;28;20041;-64
2021/09/28 03:36:41;;;;;;;9.32;4.55;;;15.20;99.90;;;;;;5023354;28;20022;-64
2021/09/28 03:39:06;;;;;;;8.45;4.90;;;15.10;99.90;;;;;;5034624;28;20124;-64
2021/09/28 03:41:32;;;;;;;7.60;4.20;;;15.10;99.90;;;;;;5034466;28;20033;-64
2021/09/28 03:43:57;;;;;;;9.13;4.70;;;15.10;99.90;;;;;;5033105;28;20045;-64
2021/09/28 03:46:23;;;;;;;8.30;4.50;;;15.20;99.90;;;;;;5034116;28;20037;-64
2021/09/28 03:48:49;;;;;;;5.45;3.83;;;15.10;99.90;;;;;;5033545;28;20258;-63
2021/09/28 03:51:15;;;;;;;6.90;4.20;;;15.10;99.90;;;;;;5034653;28;20458;-63
2021/09/28 03:53:41;;;;;;;5.80;4.68;;;15.00;99.90;;;;;;5034426;28;20038;-64
2021/09/28 03:56:07;;;;;;;7.85;4.43;;;15.10;99.90;;;;;;5033700;28;20045;-63
2021/09/28 03:58:32;;;;;;;10.13;5.72;;;15.20;99.90;;;;;;5033859;28;20029;-63
2021/09/28 04:00:58;;;;;;;5.68;4.72;;;15.30;99.90;;;;;;5032892;28;20461;-64
2021/09/28 04:03:24;;;;;;;10.43;5.25;;;15.40;99.90;;;;;;5035379;28;20060;-63
2021/09/28 04:05:49;;;;;;;9.10;5.43;;;15.30;99.90;;;;;;5034868;28;20488;-64
2021/09/28 04:08:15;;;;;;;9.68;5.72;;;15.30;99.90;;;;;;5034484;28;20394;-64
2021/09/28 04:10:40;;;;;;;7.90;5.70;;;15.40;99.90;;;;;;5033318;28;20034;-64
2021/09/28 04:13:11;;;;;;;8.45;5.90;;;15.40;99.90;;;;;;5034581;28;20495;-64
2021/09/28 04:15:40;;;;;;;8.63;5.45;;;15.40;99.90;;;;;;5034240;28;20025;-64
2021/09/28 04:18:11;;;;;;;9.93;5.53;;;15.30;99.90;;;;;;5034873;28;20045;-64
2021/09/28 04:20:40;;;;;;;8.60;5.40;;;15.40;99.90;;;;;;5033886;28;20071;-64
2021/09/28 04:23:06;;;;;;;10.60;6.45;;;15.50;99.90;;;;;;5034518;28;20614;-62
2021/09/28 04:25:32;;;;;;;11.23;5.88;;;15.50;99.90;;;;;;5034541;28;20037;-63
2021/09/28 04:27:58;;;;;;;6.85;5.25;;;15.40;99.90;;;;;;5033505;28;20622;-64
2021/09/28 04:30:24;;;;;;;8.02;5.93;;;15.40;99.90;;;;;;5034235;28;20439;-64
2021/09/28 04:32:49;;;;;;;7.82;6.25;;;15.30;99.90;;;;;;5033731;28;20021;-63
2021/09/28 04:35:15;;;;;;;8.65;5.97;;;15.30;99.90;;;;;;5034443;28;20041;-64
2021/09/28 04:37:41;;;;;;;8.57;7.05;;;15.30;99.90;;;;;;5017001;28;20108;-64
2021/09/28 04:40:08;;;;;;;6.65;5.60;;;15.30;99.90;;;;;;5014194;28;20041;-64
2021/09/28 04:42:33;;;;;;;7.90;5.35;;;15.50;99.90;;;;;;5012637;28;20573;-64
2021/09/28 04:44:59;;;;;;;8.70;5.22;;;15.50;99.90;;;;;;5014456;28;20029;-65
2021/09/28 04:47:24;;;;;;;9.88;5.63;;;15.60;99.90;;;;;;5014132;28;20137;-63
2021/09/28 04:49:50;;;;;;;7.97;5.38;;;15.70;99.90;;;;;;5012740;28;20038;-64
2021/09/28 04:52:16;;;;;;;7.60;5.82;;;15.60;99.90;;;;;;5013430;28;20088;-63
2021/09/28 04:54:42;;;;;;;6.60;5.85;;;15.60;99.90;;;;;;5013966;28;20037;-63
2021/09/28 04:57:07;;;;;;;10.57;6.00;;;15.50;99.90;;;;;;5012385;28;20037;-64
2021/09/28 04:59:33;;;;;;;9.18;6.45;;;15.50;99.90;;;;;;5011977;28;20064;-65
2021/09/28 05:01:59;;;;;;;10.57;6.40;;;15.40;99.90;;;;;;5023305;28;20552;-64
2021/09/28 05:04:24;;;;;;;8.50;5.85;;;15.20;99.90;;;;;;5031902;28;20640;-64
2021/09/28 05:06:50;;;;;;;10.10;6.85;;;15.20;99.90;;;;;;5015943;28;20489;-63
2021/09/28 05:09:15;;;;;;;11.43;6.53;;;15.10;99.90;;;;;;5033361;28;20171;-63
2021/09/28 05:11:41;;;;;;;8.80;6.20;;;15.00;99.90;;;;;;5033248;28;20046;-64
2021/09/28 05:14:07;;;;;;;14.13;7.65;;;15.00;99.90;;;;;;5031641;28;20061;-63
2021/09/28 05:16:32;;;;;;;9.27;5.88;;;14.80;99.90;;;;;;5033088;28;20033;-65
2021/09/28 05:18:58;;;;;;;7.97;6.45;;;14.90;99.90;;;;;;5032445;28;20034;-63
2021/09/28 05:21:25;;;;;;;8.70;6.15;;;15.10;99.90;;;;;;5032837;28;20036;-63
2021/09/28 05:23:50;;;;;;;11.88;6.82;;;15.20;99.90;;;;;;5031792;28;20029;-64
2021/09/28 05:26:16;;;;;;;9.68;6.28;;;15.20;99.90;;;;;;5032878;28;20500;-64
2021/09/28 05:28:42;;;;;;;12.25;6.90;;;15.30;99.90;;;;;;5033097;28;20034;-63
2021/09/28 05:31:08;;;;;;;10.30;5.82;;;15.20;99.90;;;;;;5030897;28;20041;-63
2021/09/28 05:33:35;;;;;;;9.32;5.30;;;15.30;99.90;;;;;;5031777;28;20037;-64
2021/09/28 05:36:00;;;;;;;8.40;5.43;;;15.50;99.90;;;;;;5030305;28;20480;-63
2021/09/28 05:38:26;;;;;;;8.07;6.20;;;15.60;99.90;;;;;;5013228;28;20053;-63
2021/09/28 05:40:52;;;;;;;7.60;6.10;;;15.50;99.90;;;;;;5012637;28;20474;-63
2021/09/28 05:43:18;;;;;;;8.32;5.70;;;15.50;99.90;;;;;;5012912;28;20046;-63
2021/09/28 05:45:43;;;;;;;8.75;6.13;;;15.40;99.90;;;;;;5011851;28;20033;-64
2021/09/28 05:48:09;;;;;;;11.82;6.55;;;15.40;99.90;;;;;;5012851;28;20045;-64
2021/09/28 05:50:36;;;;;;;7.95;5.82;;;15.50;99.90;;;;;;5012476;28;20042;-63
2021/09/28 05:53:07;;;;;;;14.02;6.57;;;15.50;99.90;;;;;;5012688;28;20037;-64
2021/09/28 05:55:33;;;;;;;8.70;6.20;;;15.60;99.90;;;;;;5012771;28;20117;-63
2021/09/28 05:57:59;;;;;;;9.73;7.78;;;15.60;99.90;;;;;;5013277;28;20029;-63
2021/09/28 06:00:24;;;;;;;10.48;7.30;;;15.30;99.90;;;;;;5012340;28;20045;-63
2021/09/28 06:02:50;;;;;;;12.80;8.30;;;15.30;99.90;;;;;;5031303;28;20064;-63
2021/09/28 06:05:16;;;;;;;11.45;7.38;;;15.50;99.90;;;;;;5032331;28;20378;-64
2021/09/28 06:07:41;;;;;;;14.10;8.20;;;15.50;99.90;;;;;;5031997;28;20057;-65
2021/09/28 06:10:07;;;;;;;14.15;8.65;;;15.20;99.90;;;;;;5032837;28;20037;-63
2021/09/28 06:12:33;;;;;;;12.63;7.75;;;15.30;99.90;;;;;;5032208;28;20506;-63
2021/09/28 06:14:58;;;;;;;14.15;9.93;;;15.30;99.90;;;;;;5032802;28;20036;-63
2021/09/28 06:17:24;;;;;;;12.25;8.77;;;15.50;99.90;;;;;;5030197;28;20575;-64
2021/09/28 06:19:50;;;;;;;13.52;9.50;;;15.40;99.90;;;;;;5016258;28;20034;-65
2021/09/28 06:22:15;;;;;;;12.90;9.30;;;15.40;99.90;;;;;;5012386;28;20446;-64
2021/09/28 06:24:41;;;;;;;14.45;10.40;;;15.40;99.90;;;;;;5012620;28;20511;-66
2021/09/28 06:27:07;;;;;;;16.00;9.68;;;15.30;99.90;;;;;;5020759;28;20052;-65
2021/09/28 06:29:33;;;;;;;15.32;11.20;;;15.20;99.90;;;;;;5032667;28;20037;-63
2021/09/28 06:31:59;;;;;;;13.45;11.50;;;15.10;99.90;;;;;;5031332;28;20480;-64
2021/09/28 06:34:26;;;;;;;17.08;11.20;;;15.10;99.90;;;;;;5032305;28;20626;-65
2021/09/28 06:36:52;;;;;;;15.07;11.30;;;15.10;99.90;;;;;;5027581;28;20034;-65
2021/09/28 06:39:17;;;;;;;17.30;11.68;;;15.30;99.90;;;;;;5026792;28;20186;-65
2021/09/28 06:41:43;;;;;;;16.83;12.48;;;15.00;99.90;;;;;;5024472;28;20407;-64
2021/09/28 06:44:09;;;;;;;17.13;12.18;;;15.10;99.90;;;;;;5023247;28;20836;-64
2021/09/28 06:46:35;;;;;;;17.98;12.88;;;15.00;99.90;;;;;;5012659;28;20030;-64
2021/09/28 06:49:01;;;;;;;15.68;12.60;;;15.10;99.90;;;;;;5012492;28;20040;-64
2021/09/28 06:51:27;;;;;;;17.60;12.85;;;15.10;99.90;;;;;;5026898;28;20428;-64
2021/09/28 06:53:52;;;;;;;18.52;13.20;;;15.20;99.90;;;;;;5012630;28;20049;-64
2021/09/28 06:56:20;;;;;;;16.65;12.43;;;15.20;99.90;;;;;;5030001;28;20046;-63
2021/09/28 06:58:46;;;;;;;19.27;12.88;;;15.20;99.90;;;;;;5046990;28;20042;-62
2021/09/28 07:01:12;;;;;;;15.90;12.60;;;15.30;99.90;;;;;;5030220;28;20025;-65
2021/09/28 07:03:38;;;;;;;22.30;13.35;;;15.30;99.90;;;;;;5031938;28;20504;-64
2021/09/28 07:06:03;;;;;;;18.75;12.65;;;15.30;99.90;;;;;;5032099;28;20037;-63
2021/09/28 07:08:29;;;;;;;17.63;12.13;;;15.50;99.90;;;;;;5031481;28;20030;-63
2021/09/28 07:10:55;;;;;;;17.00;12.88;;;15.40;99.90;;;;;;5030325;28;20029;-63
2021/09/28 07:13:20;;;;;;;13.38;12.00;;;15.50;99.90;;;;;;5027282;28;20030;-64
2021/09/28 07:15:46;;;;;;;15.88;12.35;;;15.60;99.90;;;;;;5010684;28;20053;-65
2021/09/28 07:18:12;;;;;;;13.68;11.80;;;15.60;99.90;;;;;;5011796;28;20030;-65
2021/09/28 07:20:38;;;;;;;14.30;12.07;;;15.50;99.90;;;;;;5034200;28;20088;-64
2021/09/28 07:23:04;;;;;;;16.73;12.32;;;15.40;99.90;;;;;;5033747;28;20638;-64
2021/09/28 07:25:30;;;;;;;15.35;11.98;;;15.40;99.90;;;;;;5028478;28;20044;-64
2021/09/28 07:28:00;;;;;;;15.77;12.18;;;15.50;99.90;;;;;;5024441;28;20029;-63
2021/09/28 07:30:27;;;;;;;17.85;12.25;;;15.50;99.90;;;;;;5014947;28;20437;-63
2021/09/28 07:32:56;;;;;;;14.35;12.13;;;15.70;99.90;;;;;;5031769;28;20029;-64
2021/09/28 07:35:22;;;;;;;17.75;11.18;;;15.60;99.90;;;;;;5035249;28;20060;-64
2021/09/28 07:37:48;;;;;;;16.42;10.82;;;15.50;99.90;;;;;;5033847;28;20488;-64
2021/09/28 07:40:16;;;;;;;14.23;10.95;;;15.40;99.90;;;;;;5033727;28;20526;-63
2021/09/28 07:42:42;;;;;;;12.63;9.95;;;15.40;99.90;;;;;;5034286;28;20049;-64
2021/09/28 07:45:08;;;;;;;14.38;9.07;;;15.60;99.90;;;;;;5035314;28;20512;-64
2021/09/28 07:47:35;;;;;;;10.88;9.07;;;15.50;99.90;;;;;;5028243;28;20021;-64
2021/09/28 07:50:01;;;;;;;15.27;8.63;;;15.60;99.90;;;;;;5012257;28;20060;-63
2021/09/28 07:52:27;;;;;;;14.45;8.65;;;15.70;99.90;;;;;;5031478;28;20045;-64
2021/09/28 07:54:53;;;;;;;10.60;8.80;;;15.60;99.90;;;;;;5033352;28;20034;-64
2021/09/28 07:57:18;;;;;;;14.10;7.88;;;15.50;99.90;;;;;;5035024;28;20124;-64
2021/09/28 07:59:44;;;;;;;16.60;8.15;;;15.60;99.90;;;;;;5034294;28;20029;-65
2021/09/28 08:02:10;;;;;;;10.40;6.75;;;15.80;99.90;;;;;;5034003;28;20099;-64
2021/09/28 08:04:37;;;;;;;12.32;6.68;;;15.80;99.90;;;;;;5034315;28;20040;-64
2021/09/28 08:07:07;;;;;;;12.77;7.00;;;15.70;99.90;;;;;;5034638;28;20088;-63
2021/09/28 08:09:33;;;;;;;8.93;6.43;;;15.90;99.90;;;;;;5034271;28;20133;-63
2021/09/28 08:11:58;;;;;;;8.85;6.18;;;16.00;99.90;;;;;;5033664;28;20124;-64
2021/09/28 08:14:24;;;;;;;12.30;6.53;;;16.00;99.90;;;;;;5032711;28;20060;-65
2021/09/28 08:16:49;;;;;;;12.18;6.38;;;16.00;99.90;;;;;;5049936;28;20041;-64
2021/09/28 08:19:15;;;;;;;10.68;6.50;;;16.10;99.90;;;;;;5049613;28;20033;-64
2021/09/28 08:21:40;;;;;;;8.70;4.50;;;15.90;99.90;;;;;;5033190;28;20026;-63
2021/09/28 08:24:07;;;;;;;9.20;4.95;;;16.00;99.90;;;;;;5014544;28;20037;-64
2021/09/28 08:29:09;;;;;;;11.50;4.55;;;15.90;99.90;;;;;;5014266;28;20037;-63
2021/09/28 08:31:36;;;;;;;7.35;4.28;;;15.90;99.90;;;;;;5013824;28;20062;-64
2021/09/28 08:34:03;;;;;;;10.48;4.30;;;15.90;99.90;;;;;;5014072;28;20731;-63
2021/09/28 08:36:29;;;;;;;11.30;4.60;;;15.90;99.90;;;;;;5020064;28;20112;-64
2021/09/28 08:38:55;;;;;;;8.40;3.75;;;16.00;99.90;;;;;;5034132;28;20025;-63
2021/09/28 08:41:21;;;;;;;8.18;3.85;;;15.90;99.80;;;;;;5033123;28;20042;-64
2021/09/28 08:43:51;;;;;;;14.15;4.68;;;15.80;99.80;;;;;;5033660;28;20087;-64
2021/09/28 08:46:18;;;;;;;9.55;3.85;;;15.80;99.90;;;;;;5033809;28;20061;-64
2021/09/28 08:48:46;;;;;;;10.02;4.00;;;15.80;99.90;;;;;;5020059;28;20558;-64
2021/09/28 08:51:12;;;;;;;11.77;3.80;;;15.90;99.90;;;;;;5013679;28;20076;-64
2021/09/28 08:53:38;;;;;;;8.75;4.25;;;15.90;99.90;;;;;;5013323;28;20044;-63
2021/09/28 08:56:05;;;;;;;9.27;4.15;;;16.00;99.90;;;;;;5025357;28;20084;-63
2021/09/28 08:58:32;;;;;;;11.30;3.58;;;16.00;99.90;;;;;;5021533;28;20030;-63
2021/09/28 09:01:06;;;;;;;6.63;3.60;;;16.10;99.30;;;;;;5013298;28;20129;-63
2021/09/28 09:03:35;;;;;;;9.10;3.63;;;16.20;99.60;;;;;;5012445;28;20065;-64
2021/09/28 09:06:05;;;;;;;7.38;3.90;;;16.30;99.40;;;;;;5012676;28;20559;-65
2021/09/28 09:08:35;;;;;;;10.20;3.30;;;16.50;99.50;;;;;;5012349;28;20536;-64
2021/09/28 09:11:15;;;;;;;8.27;3.78;;;16.50;99.00;;;;;;5013079;28;20046;-64
2021/09/28 09:13:43;;;;;;;9.45;3.95;;;16.60;98.40;;;;;;5013800;28;20041;-64
2021/09/28 09:16:13;;;;;;;8.63;3.10;;;16.70;97.50;;;;;;5030744;28;20041;-64
2021/09/28 09:18:39;;;;;;;12.25;3.83;;;16.60;97.20;;;;;;5033012;28;20033;-64
2021/09/28 09:21:07;;;;;;;7.47;3.47;;;16.70;97.30;;;;;;5021388;28;20030;-63
2021/09/28 09:23:36;;;;;;;7.82;3.50;;;16.50;97.70;;;;;;5013392;28;20087;-64
2021/09/28 09:26:26;;;;;;;8.18;3.55;;;16.40;97.70;;;;;;5011956;28;20038;-61
2021/09/28 09:28:55;;;;;;;13.00;3.33;;;16.60;97.70;;;;;;5013127;28;20481;-61
2021/09/28 09:31:34;;;;;;;7.93;3.53;;;16.50;97.60;;;;;;5011283;28;20068;-65
2021/09/28 09:34:10;;;;;;;11.82;3.85;;;16.60;97.70;;;;;;5011729;28;20388;-62
2021/09/28 09:36:38;;;;;;;11.35;2.92;;;16.60;97.50;;;;;;5019492;28;20029;-61
2021/09/28 09:39:06;;;;;;;12.07;3.58;;;16.70;97.00;;;;;;5032603;28;20033;-65
2021/09/28 09:41:33;;;;;;;12.65;4.05;;;16.90;96.70;;;;;;5032293;28;20030;-63
2021/09/28 09:44:08;;;;;;;7.95;3.13;;;17.20;96.20;;;;;;5032003;28;20116;-63
2021/09/28 09:46:48;;;;;;;5.85;2.80;;;17.20;96.40;;;;;;5032657;28;20036;-64
2021/09/28 09:49:16;;;;;;;8.00;3.47;;;17.30;95.90;;;;;;5032408;28;20132;-64
2021/09/28 09:51:43;;;;;;;7.65;3.80;;;17.40;95.30;;;;;;5032187;28;20029;-63
2021/09/28 09:54:09;;;;;;;6.60;3.17;;;17.70;95.10;;;;;;5032264;28;20528;-63
2021/09/28 09:56:40;;;;;;;6.28;2.97;;;18.00;95.00;;;;;;5032709;28;20041;-62
2021/09/28 09:59:06;;;;;;;9.35;3.35;;;18.30;94.50;;;;;;5032465;28;20038;-63
2021/09/28 10:01:35;;;;;;;16.63;5.22;;;18.40;94.30;;;;;;5030945;28;20037;-62
2021/09/28 10:04:08;;;;;;;4.32;2.70;;;18.10;93.80;;;;;;5032448;28;20069;-64
2021/09/28 10:06:34;;;;;;;8.15;3.03;;;17.80;91.90;;;;;;5032147;28;20033;-63
2021/09/28 10:09:01;;;;;;;5.88;2.97;;;17.40;92.90;;;;;;5030947;28;20087;-64
2021/09/28 10:11:32;;;;;;;5.30;3.00;;;17.40;93.20;;;;;;5032446;28;20030;-64
2021/09/28 10:13:58;;;;;;;5.72;3.20;;;17.50;93.60;;;;;;5031980;28;20179;-63
2021/09/28 10:16:37;;;;;;;6.15;3.40;;;17.50;94.00;;;;;;5031773;28;20080;-64
2021/09/28 10:19:24;;;;;;;4.85;2.90;;;17.70;94.00;;;;;;5030508;28;20089;-64
2021/09/28 10:21:49;;;;;;;9.25;3.40;;;17.80;93.90;;;;;;5014025;28;20072;-63
2021/09/28 10:24:18;;;;;;;7.57;2.85;;;17.70;93.50;;;;;;5012453;28;20077;-63
2021/09/28 10:27:07;;;;;;;7.00;3.42;;;17.90;93.90;;;;;;5012485;28;20026;-63
2021/09/28 10:29:49;;;;;;;7.78;3.05;;;18.20;93.50;;;;;;5011400;28;20393;-64
2021/09/28 10:32:24;;;;;;;6.47;2.83;;;18.00;92.70;;;;;;5011672;28;20030;-64
2021/09/28 10:35:11;;;;;;;12.32;3.47;;;18.00;92.60;;;;;;5012671;28;20029;-63
2021/09/28 10:37:50;;;;;;;10.85;3.25;;;17.80;92.90;;;;;;5028739;28;20072;-64
2021/09/28 10:40:17;;;;;;;8.18;3.28;;;17.80;93.10;;;;;;5041059;28;20112;-64
2021/09/28 10:42:51;;;;;;;7.72;3.42;;;18.00;92.80;;;;;;5032063;28;20036;-64
2021/09/28 10:45:30;;;;;;;9.80;3.10;;;18.00;93.00;;;;;;5031059;28;20029;-64
2021/09/28 10:48:01;;;;;;;8.68;3.55;;;18.30;92.50;;;;;;5012348;28;20040;-67
2021/09/28 10:50:33;;;;;;;7.18;3.30;;;18.60;92.10;;;;;;5013060;28;20030;-63
2021/09/28 10:53:02;;;;;;;10.52;3.25;;;18.50;92.30;;;;;;5010522;28;20038;-64
2021/09/28 10:55:39;;;;;;;10.57;3.40;;;18.50;92.10;;;;;;5013661;28;20037;-65
2021/09/28 10:58:14;;;;;;;6.75;3.20;;;18.30;92.50;;;;;;5035228;28;20508;-64
2021/09/28 11:00:40;;;;;;;8.95;3.28;;;18.50;92.40;;;;;;5033504;28;20038;-65
2021/09/28 11:03:10;;;;;;;13.50;7.20;;;18.50;92.00;;;;;;5035288;28;20033;-63
2021/09/28 11:05:41;;;;;;;10.05;4.03;;;18.50;92.10;;;;;;5035355;28;20057;-64
2021/09/28 11:08:09;;;;;;;10.32;3.35;;;18.50;91.80;;;;;;5035214;28;20083;-64
2021/09/28 11:10:38;;;;;;;7.25;3.22;;;18.70;91.60;;;;;;5036226;28;20048;-64
2021/09/28 11:13:09;;;;;;;11.55;3.05;;;18.90;90.90;;;;;;5034693;28;20030;-64
2021/09/28 11:15:35;;;;;;;6.47;3.03;;;18.80;91.10;;;;;;5035785;28;20115;-64
2021/09/28 11:18:11;;;;;;;5.80;3.72;;;18.90;90.60;;;;;;5035774;28;20072;-63
2021/09/28 11:20:38;;;;;;;8.60;3.28;;;18.70;91.10;;;;;;5028019;28;20072;-64
2021/09/28 11:23:10;;;;;;;10.18;3.50;;;18.40;91.50;;;;;;5015587;28;20444;-64
2021/09/28 11:25:46;;;;;;;7.47;3.10;;;18.40;91.70;;;;;;4998150;28;20394;-64
2021/09/28 11:28:13;;;;;;;10.25;3.90;;;18.50;91.50;;;;;;5015202;28;20041;-64
2021/09/28 11:30:49;;;;;;;8.65;3.97;;;18.60;91.60;;;;;;5015449;28;20042;-64
2021/09/28 11:33:15;;;;;;;7.95;3.40;;;18.80;91.50;;;;;;5015488;28;20516;-63
2021/09/28 11:36:01;;;;;;;10.82;4.30;;;19.10;91.10;;;;;;5028340;28;20088;-64
2021/09/28 11:38:38;;;;;;;9.15;3.38;;;19.30;90.60;;;;;;5015015;28;20037;-64
2021/09/28 11:41:12;;;;;;;12.00;3.25;;;19.40;90.30;;;;;;5014637;28;20080;-66
2021/09/28 11:43:38;;;;;;;;;;;19.40;89.70;;;;;;5016227;28;20049;-64
2021/09/28 11:46:14;;;;;;;10.55;2.90;;;19.30;89.20;;;;;;5016421;28;19988;-63
2021/09/28 11:48:42;;;;;;;5.03;2.78;;;19.20;89.80;;;;;;5016001;28;20088;-63
2021/09/28 11:51:13;;;;;;;9.15;3.25;;;19.10;88.80;;;;;;5015268;28;20117;-63
2021/09/28 11:53:40;;;;;;;6.03;2.97;;;19.10;89.40;;;;;;5015402;28;20038;-64
2021/09/28 11:56:07;;;;;;;14.07;5.60;;;19.10;89.00;;;;;;5014334;28;20040;-63
2021/09/28 11:58:37;;;;;;;5.68;3.13;;;19.30;88.80;;;;;;5015644;28;20088;-65
2021/09/28 12:01:06;;;;;;;8.07;2.72;;;19.50;87.80;;;;;;5014149;28;20026;-65
2021/09/28 12:03:34;;;;;;;7.22;2.97;;;19.50;86.50;;;;;;5014844;28;20560;-65
2021/09/28 12:06:04;;;;;;;10.90;3.33;;;19.60;86.20;;;;;;5014893;28;20032;-64
2021/09/28 12:08:33;;;;;;;7.05;4.10;;;19.70;86.20;;;;;;5015097;28;20471;-64
2021/09/28 12:11:03;;;;;;;8.38;2.63;;;19.90;85.50;;;;;;5014499;28;20038;-63
2021/09/28 12:13:30;;;;;;;6.75;3.10;;;19.90;85.30;;;;;;5014032;28;20117;-63
2021/09/28 12:16:08;;;;;;;9.48;3.67;;;19.90;84.70;;;;;;5013447;28;20034;-64
2021/09/28 12:18:34;;;;;;;6.22;2.67;;;20.10;84.70;;;;;;5015606;28;20030;-64
2021/09/28 12:21:09;;;;;;;4.60;2.65;;;20.20;84.10;;;;;;5024876;28;20037;-64
2021/09/28 12:23:34;;;;;;;8.77;3.13;;;20.40;83.30;;;;;;5034784;28;20029;-64
2021/09/28 12:26:00;;;;;;;5.93;2.55;;;20.40;84.10;;;;;;5034636;28;20037;-63
2021/09/28 12:28:26;;;;;;;5.75;2.90;;;20.50;84.10;;;;;;5033973;28;20373;-64
2021/09/28 12:30:55;;;;;;;6.07;2.70;;;20.40;84.70;;;;;;5034243;28;20025;-65
2021/09/28 12:33:22;;;;;;;7.30;3.70;;;20.40;85.00;;;;;;5034351;28;20029;-65
2021/09/28 12:35:52;;;;;;;4.97;2.90;;;20.50;84.20;;;;;;5032431;28;20021;-64
2021/09/28 12:38:18;;;;;;;3.40;2.80;;;20.40;84.10;;;;;;5033993;28;20404;-65
2021/09/28 12:40:44;;;;;;;7.45;2.53;;;20.50;83.40;;;;;;5033608;28;20040;-63
2021/09/28 12:43:12;;;;;;;8.90;2.75;;;20.70;82.90;;;;;;5033556;28;20033;-63